Saturday, May 26, 2018, 12:13 PM GMT
Back to Local

CWIP, Pointe Noire , Que.

Location: , , Canada Lat: 50.167
Local Time: 12:13 PM GMT (12:13 GMT) Lon: -66.433
Time Zone: GMT Elev: 82 ft

Show me the last for .
Show Coded

Time T Td Feel RH Dir Speed Gust Alt SLP Vis Weather Sky Remarks
2018-05-26 11:00 36 - - 0 280° 2 - - - 0 None
2018-05-26 10:00 36 - - 0 280° 1 - - - 0 None
2018-05-26 09:00 35 - - 0 160° 1 - - - 0 None
2018-05-26 08:00 35 - - 0 30° 1 - - - 0 None
2018-05-26 07:00 35 - - 0 30° 1 - - - 0 None
2018-05-26 06:00 36 - 33 0 40° 3 - - - 0 None
2018-05-26 05:00 36 - 34 0 60° 3 - - - 0 None
2018-05-26 04:00 36 - 34 0 60° 3 - - - 0 None
2018-05-26 03:00 37 - - 0 60° 2 - - - 0 None
2018-05-26 02:00 37 - - 0 140° 2 - - - 0 None
2018-05-26 01:00 39 - - 0 130° 2 - - - 0 None
2018-05-26 00:00 40 - 38 0 120° 3 - - - 0 None
2018-05-25 23:00 41 - 39 0 130° 3 - - - 0 None
2018-05-25 22:00 42 - 40 0 110° 3 - - - 0 None
2018-05-25 21:00 42 - 40 0 110° 3 - - - 0 None
2018-05-25 20:00 44 - 42 0 70° 5 - - - 0 None
2018-05-25 19:00 42 - 39 0 100° 5 - - - 0 None
2018-05-25 18:00 41 - 38 0 80° 5 - - - 0 None
2018-05-25 17:00 39 - 35 0 70° 6 - - - 0 None
2018-05-25 16:00 38 - 34 0 80° 6 - - - 0 None
2018-05-25 15:00 39 - 33 0 70° 8 - - - 0 None
2018-05-25 14:00 40 - 37 0 40° 5 - - - 0 None
2018-05-25 13:00 39 - 34 0 60° 7 - - - 0 None

Support USWX by starting your Amazon purchase here.